Time;durP1;ratioP1;P1;durP2;ratioP2;P2;SDS_P1;SDS_P2;PMS_P1;PMS_P2;Temp;Humidity;BMP_temperature;BMP_pressure;BME280_temperature;BME280_humidity;BME280_pressure;Samples;Min_cycle;Max_cycle;Signal;HPM_P1;HPM_P2
2021/06/15 05:21:34;;;;;;;3.53;1.90;;;;;;;;;;5362474;23;21160;-73
2021/06/15 05:24:04;;;;;;;4.80;2.00;;;;;;;;;;4858822;29;20044;-70
2021/06/15 05:26:31;;;;;;;5.03;1.77;;;;;;;;;;4880075;29;20586;-69
2021/06/15 05:28:58;;;;;;;4.35;1.90;;;;;;;;;;4863349;29;20029;-65
2021/06/15 05:31:24;;;;;;;3.45;1.95;;;;;;;;;;4879843;29;20029;-65
2021/06/15 05:33:50;;;;;;;8.13;1.90;;;;;;;;;;4880084;29;20029;-65
2021/06/15 05:36:16;;;;;;;3.75;1.85;;;;;;;;;;4880105;29;20085;-65
2021/06/15 05:38:43;;;;;;;4.53;1.73;;;;;;;;;;4879470;29;20029;-65
2021/06/15 05:41:09;;;;;;;5.05;1.70;;;;;;;;;;4879480;29;20404;-68
2021/06/15 05:43:35;;;;;;;4.78;2.00;;;;;;;;;;4879665;29;20108;-69
2021/06/15 05:46:01;;;;;;;5.55;1.90;;;;;;;;;;4879597;29;20086;-67
2021/06/15 05:48:27;;;;;;;5.30;2.00;;;;;;;;;;4879859;29;20156;-70
2021/06/15 05:50:53;;;;;;;3.97;2.00;;;;;;;;;;4879778;29;20030;-64
2021/06/15 05:53:19;;;;;;;3.70;1.80;;;;;;;;;;4879216;29;20377;-65
2021/06/15 05:55:46;;;;;;;4.55;2.20;;;;;;;;;;4878828;29;20033;-70
2021/06/15 05:58:12;;;;;;;6.18;2.03;;;;;;;;;;4879761;29;20040;-66
2021/06/15 06:00:38;;;;;;;6.13;1.98;;;;;;;;;;4877873;29;20112;-66
2021/06/15 06:03:05;;;;;;;5.22;1.90;;;;;;;;;;4876017;29;20035;-65
2021/06/15 06:08:20;;;;;;;3.80;2.30;;;;;;;;;;4876957;29;20100;-65
2021/06/15 06:10:46;;;;;;;2.85;1.75;;;;;;;;;;4878290;29;20036;-67
2021/06/15 06:13:12;;;;;;;6.35;2.15;;;;;;;;;;4878065;29;20040;-64
2021/06/15 06:15:39;;;;;;;6.97;2.45;;;;;;;;;;4877752;29;20025;-65
2021/06/15 06:18:10;;;;;;;4.80;2.20;;;;;;;;;;4861478;29;20065;-64
2021/06/15 06:20:37;;;;;;;5.18;2.15;;;;;;;;;;4878486;29;20024;-68
2021/06/15 06:23:03;;;;;;;5.35;2.20;;;;;;;;;;4878414;29;20097;-66
2021/06/15 06:25:30;;;;;;;4.75;2.20;;;;;;;;;;4878384;29;20056;-66
2021/06/15 06:27:56;;;;;;;5.07;2.00;;;;;;;;;;4876243;29;20112;-66
2021/06/15 06:30:23;;;;;;;4.80;2.20;;;;;;;;;;4868146;29;20389;-65
2021/06/15 06:32:49;;;;;;;5.75;2.10;;;;;;;;;;4878965;29;20032;-72
2021/06/15 06:35:16;;;;;;;5.65;1.80;;;;;;;;;;4879193;29;20116;-65
2021/06/15 06:37:43;;;;;;;8.02;1.90;;;;;;;;;;4875794;29;20501;-66
2021/06/15 06:40:09;;;;;;;5.55;1.67;;;;;;;;;;4874707;29;20033;-66
2021/06/15 06:42:35;;;;;;;6.53;1.98;;;;;;;;;;4873966;29;20288;-66
2021/06/15 06:45:02;;;;;;;3.67;1.80;;;;;;;;;;4872514;29;20033;-64
2021/06/15 06:47:28;;;;;;;5.30;1.90;;;;;;;;;;4873095;29;20021;-65
2021/06/15 06:49:54;;;;;;;3.08;1.90;;;;;;;;;;4860568;29;20400;-70
2021/06/15 06:52:20;;;;;;;6.38;2.33;;;;;;;;;;4877501;29;20025;-68
2021/06/15 06:54:46;;;;;;;4.05;2.03;;;;;;;;;;4877972;29;20482;-65
2021/06/15 06:57:12;;;;;;;4.50;1.83;;;;;;;;;;4877802;29;20029;-67
2021/06/15 06:59:38;;;;;;;4.60;1.80;;;;;;;;;;4877607;29;20180;-79
2021/06/15 07:02:04;;;;;;;3.95;1.85;;;;;;;;;;4876293;29;20017;-67
2021/06/15 07:04:30;;;;;;;3.90;1.75;;;;;;;;;;4877518;29;20796;-64
2021/06/15 07:07:01;;;;;;;3.13;1.77;;;;;;;;;;4879205;29;20037;-68
2021/06/15 07:09:27;;;;;;;7.38;2.15;;;;;;;;;;4877445;29;20025;-69
2021/06/15 07:11:53;;;;;;;6.28;2.10;;;;;;;;;;4877283;29;20053;-69
2021/06/15 07:14:19;;;;;;;8.40;2.35;;;;;;;;;;4877285;29;20136;-67
2021/06/15 07:16:45;;;;;;;4.40;2.10;;;;;;;;;;4878576;29;20035;-67
2021/06/15 07:19:11;;;;;;;2.67;1.75;;;;;;;;;;4878451;29;20033;-69
2021/06/15 07:21:37;;;;;;;5.05;2.00;;;;;;;;;;4877850;29;20116;-67
2021/06/15 07:24:03;;;;;;;4.57;1.88;;;;;;;;;;4861330;29;20051;-67
2021/06/15 07:26:29;;;;;;;3.45;1.95;;;;;;;;;;4877766;29;20088;-66
2021/06/15 07:28:56;;;;;;;4.60;2.00;;;;;;;;;;4877735;29;20047;-68
2021/06/15 07:31:22;;;;;;;3.80;1.75;;;;;;;;;;4877084;29;20064;-66
2021/06/15 07:33:48;;;;;;;4.85;1.95;;;;;;;;;;4877637;29;20095;-67
2021/06/15 07:36:14;;;;;;;4.75;2.25;;;;;;;;;;4877900;29;20029;-67
2021/06/15 07:38:40;;;;;;;4.18;1.60;;;;;;;;;;4878236;29;20037;-66
2021/06/15 07:41:06;;;;;;;5.72;2.20;;;;;;;;;;4877743;29;20112;-68
2021/06/15 07:43:32;;;;;;;4.10;2.08;;;;;;;;;;4877983;29;20032;-70
2021/06/15 07:45:58;;;;;;;4.38;2.10;;;;;;;;;;4877489;29;20036;-68
2021/06/15 07:48:24;;;;;;;5.68;1.77;;;;;;;;;;4877581;29;20029;-69
2021/06/15 07:50:50;;;;;;;2.97;1.42;;;;;;;;;;4860939;29;20044;-67
2021/06/15 07:53:18;;;;;;;8.35;2.00;;;;;;;;;;4877929;29;20029;-64
2021/06/15 07:55:44;;;;;;;5.55;1.92;;;;;;;;;;4860742;29;20124;-66
2021/06/15 07:58:12;;;;;;;3.78;1.80;;;;;;;;;;4877104;29;20065;-66
2021/06/15 08:00:39;;;;;;;4.28;1.95;;;;;;;;;;4876905;29;20021;-69
2021/06/15 08:03:05;;;;;;;5.40;1.90;;;;;;;;;;4877438;29;20033;-70
2021/06/15 08:05:31;;;;;;;4.63;2.00;;;;;;;;;;4877176;29;20041;-66
2021/06/15 08:07:57;;;;;;;4.05;1.83;;;;;;;;;;4876825;29;20088;-68
2021/06/15 08:10:25;;;;;;;3.03;1.80;;;;;;;;;;4877551;29;20422;-68
2021/06/15 08:12:51;;;;;;;5.97;1.90;;;;;;;;;;4877317;29;20375;-68
2021/06/15 08:15:17;;;;;;;8.32;2.30;;;;;;;;;;4876841;29;20100;-69
2021/06/15 08:17:44;;;;;;;5.53;2.13;;;;;;;;;;4876746;29;20040;-69
2021/06/15 08:20:10;;;;;;;4.93;1.80;;;;;;;;;;4876913;29;20127;-65
2021/06/15 08:22:36;;;;;;;5.60;2.00;;;;;;;;;;4876129;29;20064;-69
2021/06/15 08:25:03;;;;;;;4.45;1.80;;;;;;;;;;4876300;29;20127;-70
2021/06/15 08:27:30;;;;;;;5.47;1.90;;;;;;;;;;4876324;29;20103;-70
2021/06/15 08:29:56;;;;;;;3.95;1.95;;;;;;;;;;4855510;29;20036;-70
2021/06/15 08:32:22;;;;;;;2.85;1.42;;;;;;;;;;4873241;29;20024;-69
2021/06/15 08:34:49;;;;;;;2.72;1.48;;;;;;;;;;4869511;29;20503;-69
2021/06/15 08:37:15;;;;;;;5.05;2.08;;;;;;;;;;4863156;29;20161;-68
2021/06/15 08:39:42;;;;;;;4.20;2.10;;;;;;;;;;4863464;29;20036;-68
2021/06/15 08:42:08;;;;;;;6.78;2.10;;;;;;;;;;4868456;29;20044;-69
2021/06/15 08:44:35;;;;;;;3.90;1.70;;;;;;;;;;4856465;29;20042;-69
2021/06/15 08:47:01;;;;;;;3.85;1.70;;;;;;;;;;4865720;29;20101;-70
2021/06/15 08:49:27;;;;;;;8.15;2.05;;;;;;;;;;4859605;29;20037;-68
2021/06/15 08:51:54;;;;;;;7.30;2.00;;;;;;;;;;4869332;29;20185;-69
2021/06/15 08:54:21;;;;;;;4.68;1.92;;;;;;;;;;4867670;29;20036;-70
2021/06/15 08:56:47;;;;;;;4.85;2.08;;;;;;;;;;4875925;29;20033;-71
2021/06/15 08:59:19;;;;;;;4.00;2.10;;;;;;;;;;4873728;29;20044;-70
2021/06/15 09:01:46;;;;;;;3.40;2.00;;;;;;;;;;4865764;29;20037;-68
2021/06/15 09:04:12;;;;;;;4.20;1.73;;;;;;;;;;4866065;29;20029;-68
2021/06/15 09:06:38;;;;;;;3.97;1.83;;;;;;;;;;4860187;29;20037;-68
2021/06/15 09:09:04;;;;;;;4.07;1.90;;;;;;;;;;4861899;29;20085;-68
2021/06/15 09:11:51;;;;;;;5.20;2.17;;;;;;;;;;4866685;29;20065;-68
2021/06/15 09:14:18;;;;;;;4.22;1.60;;;;;;;;;;4868716;29;20030;-68
2021/06/15 09:16:45;;;;;;;3.47;1.80;;;;;;;;;;4864734;29;20026;-67
2021/06/15 09:19:16;;;;;;;4.65;1.85;;;;;;;;;;4864381;29;20460;-68
2021/06/15 09:21:43;;;;;;;4.00;1.70;;;;;;;;;;4852755;29;108759;-70
2021/06/15 09:24:26;;;;;;;3.03;1.80;;;;;;;;;;4876434;29;20052;-70
2021/06/15 09:27:08;;;;;;;5.00;1.80;;;;;;;;;;4861897;29;20040;-69
2021/06/15 09:29:38;;;;;;;3.17;1.92;;;;;;;;;;4876226;29;20676;-69
2021/06/15 09:32:05;;;;;;;5.18;2.10;;;;;;;;;;4850600;29;20037;-69
2021/06/15 09:34:31;;;;;;;6.40;2.92;;;;;;;;;;4868875;29;20398;-69
2021/06/15 09:36:58;;;;;;;5.70;1.77;;;;;;;;;;4867701;29;20026;-69
2021/06/15 09:39:24;;;;;;;5.65;1.98;;;;;;;;;;4876652;29;20029;-69
2021/06/15 09:41:50;;;;;;;4.32;2.00;;;;;;;;;;4879940;29;20098;-68
2021/06/15 09:44:21;;;;;;;6.80;1.80;;;;;;;;;;4879836;29;20560;-68
2021/06/15 09:46:48;;;;;;;5.10;2.13;;;;;;;;;;4879940;29;20044;-67
2021/06/15 09:49:26;;;;;;;6.82;3.75;;;;;;;;;;4879851;29;20389;-69
2021/06/15 09:52:12;;;;;;;4.30;2.47;;;;;;;;;;4880049;29;20052;-69
2021/06/15 09:54:39;;;;;;;5.18;2.20;;;;;;;;;;4879218;29;20033;-71
2021/06/15 09:57:05;;;;;;;4.15;2.03;;;;;;;;;;4879582;29;20053;-73
2021/06/15 09:59:31;;;;;;;5.75;2.30;;;;;;;;;;4879441;29;20025;-70
2021/06/15 10:01:57;;;;;;;5.72;2.05;;;;;;;;;;4879455;29;20058;-71
2021/06/15 10:04:25;;;;;;;6.25;2.67;;;;;;;;;;4879730;29;20048;-70
2021/06/15 10:06:52;;;;;;;3.83;1.85;;;;;;;;;;4879571;29;20486;-70
2021/06/15 10:09:28;;;;;;;6.72;1.90;;;;;;;;;;4878787;29;20033;-70
2021/06/15 10:11:56;;;;;;;5.05;1.88;;;;;;;;;;4879249;29;20060;-69
2021/06/15 10:14:23;;;;;;;4.35;1.88;;;;;;;;;;4878409;29;20097;-70
2021/06/15 10:16:50;;;;;;;7.10;2.10;;;;;;;;;;4878739;29;20029;-69
2021/06/15 10:19:16;;;;;;;4.57;2.30;;;;;;;;;;4862246;29;20044;-70
2021/06/15 10:21:42;;;;;;;4.93;2.35;;;;;;;;;;4878931;29;20177;-68
2021/06/15 10:24:09;;;;;;;4.07;1.98;;;;;;;;;;4879130;29;20033;-71
2021/06/15 10:26:35;;;;;;;5.07;2.38;;;;;;;;;;4878666;29;20030;-64
2021/06/15 10:29:02;;;;;;;6.97;2.45;;;;;;;;;;4878844;29;20457;-68
2021/06/15 10:31:29;;;;;;;3.90;2.20;;;;;;;;;;4877116;29;20128;-67
2021/06/15 10:33:56;;;;;;;3.67;1.92;;;;;;;;;;4860167;29;20030;-70
2021/06/15 10:36:37;;;;;;;5.10;1.90;;;;;;;;;;4860480;29;20033;-69
2021/06/15 10:39:04;;;;;;;3.80;2.13;;;;;;;;;;4860488;29;20118;-69
2021/06/15 10:41:31;;;;;;;6.15;1.70;;;;;;;;;;4860327;29;20162;-70
2021/06/15 10:43:58;;;;;;;4.57;1.98;;;;;;;;;;4860055;29;20049;-71
2021/06/15 10:46:25;;;;;;;8.48;2.50;;;;;;;;;;4860253;29;20033;-71
2021/06/15 10:48:57;;;;;;;5.80;1.80;;;;;;;;;;4859539;29;20040;-71
2021/06/15 10:51:23;;;;;;;;;;;;;;;;;;4856561;29;20097;-71
2021/06/15 10:53:50;;;;;;;5.85;1.55;;;;;;;;;;4856680;29;19916;-69
2021/06/15 10:56:17;;;;;;;3.83;1.65;;;;;;;;;;4855544;29;20072;-70
2021/06/15 10:58:44;;;;;;;3.75;1.85;;;;;;;;;;4855276;29;20088;-70
2021/06/15 11:01:16;;;;;;;6.45;1.77;;;;;;;;;;4859017;29;20025;-70
2021/06/15 11:04:08;;;;;;;2.83;1.75;;;;;;;;;;4859989;29;20083;-69
2021/06/15 11:06:34;;;;;;;5.53;1.63;;;;;;;;;;4857309;29;20049;-71
2021/06/15 11:09:22;;;;;;;6.00;1.75;;;;;;;;;;4859997;29;20801;-70
2021/06/15 11:12:08;;;;;;;5.88;1.92;;;;;;;;;;4859690;29;20030;-68
2021/06/15 11:14:37;;;;;;;7.68;1.90;;;;;;;;;;4849797;29;20042;-71
2021/06/15 11:17:06;;;;;;;11.27;2.33;;;;;;;;;;4859408;29;20048;-70
2021/06/15 11:19:33;;;;;;;6.72;1.80;;;;;;;;;;4872125;29;20036;-70
2021/06/15 11:22:04;;;;;;;3.33;1.60;;;;;;;;;;4875520;29;20644;-69
2021/06/15 11:24:30;;;;;;;5.17;2.00;;;;;;;;;;4877303;29;20400;-69
2021/06/15 11:27:00;;;;;;;6.05;1.88;;;;;;;;;;4877618;29;20541;-75
2021/06/15 11:29:43;;;;;;;6.57;1.80;;;;;;;;;;4875170;29;20115;-70
2021/06/15 11:32:15;;;;;;;4.63;1.85;;;;;;;;;;4877973;29;20409;-69
2021/06/15 11:34:54;;;;;;;6.28;1.60;;;;;;;;;;4877744;29;20024;-70
2021/06/15 11:37:25;;;;;;;3.05;1.50;;;;;;;;;;4878279;29;20032;-68
2021/06/15 11:39:51;;;;;;;3.72;1.63;;;;;;;;;;4877327;29;20033;-69
2021/06/15 11:42:27;;;;;;;4.43;1.40;;;;;;;;;;4877410;29;20040;-71
2021/06/15 11:44:57;;;;;;;7.57;1.70;;;;;;;;;;4877794;29;20049;-70
2021/06/15 11:47:23;;;;;;;5.72;2.00;;;;;;;;;;4877822;29;20025;-71
2021/06/15 11:50:03;;;;;;;4.47;1.98;;;;;;;;;;4876646;29;20028;-70
2021/06/15 11:52:30;;;;;;;3.28;1.58;;;;;;;;;;4876944;29;20451;-70
2021/06/15 11:54:56;;;;;;;6.15;1.52;;;;;;;;;;4877186;29;20123;-70
2021/06/15 11:57:22;;;;;;;2.63;1.42;;;;;;;;;;4877221;29;20024;-70
2021/06/15 11:59:49;;;;;;;5.75;1.60;;;;;;;;;;4877045;29;20037;-69
2021/06/15 12:02:21;;;;;;;2.92;1.30;;;;;;;;;;4877070;29;20025;-69
2021/06/15 12:05:07;;;;;;;3.78;1.50;;;;;;;;;;4877270;29;20401;-69
2021/06/15 12:07:34;;;;;;;3.10;1.73;;;;;;;;;;4877500;29;20082;-68
2021/06/15 12:10:10;;;;;;;2.13;1.30;;;;;;;;;;4877472;29;20064;-68
2021/06/15 12:12:55;;;;;;;4.15;1.40;;;;;;;;;;4877562;29;20437;-70
2021/06/15 12:15:39;;;;;;;7.07;2.55;;;;;;;;;;4877109;29;20085;-68
2021/06/15 12:18:07;;;;;;;5.03;1.52;;;;;;;;;;4858637;29;20068;-71
2021/06/15 12:20:34;;;;;;;3.92;1.80;;;;;;;;;;4858591;29;20029;-69
2021/06/15 12:23:19;;;;;;;2.70;1.50;;;;;;;;;;4866288;29;20053;-71
2021/06/15 12:25:45;;;;;;;7.55;1.70;;;;;;;;;;4876796;29;20045;-74
2021/06/15 12:28:16;;;;;;;5.72;2.33;;;;;;;;;;4876643;29;20406;-70
2021/06/15 12:30:44;;;;;;;3.83;1.70;;;;;;;;;;4877331;29;20096;-70
2021/06/15 12:33:11;;;;;;;2.95;1.48;;;;;;;;;;4876547;29;20035;-68
2021/06/15 12:35:38;;;;;;;4.35;1.70;;;;;;;;;;4877210;29;20102;-68
2021/06/15 12:38:14;;;;;;;4.07;1.67;;;;;;;;;;4875642;29;20100;-67
2021/06/15 12:40:41;;;;;;;4.32;1.55;;;;;;;;;;4877001;29;20029;-67
2021/06/15 12:43:08;;;;;;;4.25;1.50;;;;;;;;;;4876742;29;20060;-66
2021/06/15 12:45:35;;;;;;;5.85;2.13;;;;;;;;;;4876915;29;20080;-69
2021/06/15 12:48:02;;;;;;;3.95;1.83;;;;;;;;;;4876995;29;20033;-67
2021/06/15 12:50:28;;;;;;;4.20;1.60;;;;;;;;;;4876680;29;20376;-68
2021/06/15 12:53:05;;;;;;;6.63;1.85;;;;;;;;;;4876723;29;20393;-71
2021/06/15 12:55:32;;;;;;;7.20;1.63;;;;;;;;;;4876938;29;20092;-74
2021/06/15 12:57:59;;;;;;;6.35;1.90;;;;;;;;;;4876579;29;20105;-67
2021/06/15 13:00:25;;;;;;;3.92;1.50;;;;;;;;;;4876505;29;20470;-67
2021/06/15 13:02:51;;;;;;;4.03;1.90;;;;;;;;;;4876657;29;20029;-68
2021/06/15 13:05:21;;;;;;;3.15;1.70;;;;;;;;;;4876060;29;20119;-69
2021/06/15 13:07:57;;;;;;;5.05;1.70;;;;;;;;;;4876536;29;20029;-69
2021/06/15 13:10:23;;;;;;;5.25;1.40;;;;;;;;;;4876468;29;20112;-70
2021/06/15 13:12:51;;;;;;;3.50;1.50;;;;;;;;;;4875983;29;20021;-68
2021/06/15 13:15:22;;;;;;;3.42;1.35;;;;;;;;;;4876693;29;20094;-66
2021/06/15 13:18:14;;;;;;;3.75;1.50;;;;;;;;;;4876331;29;20051;-66
2021/06/15 13:20:40;;;;;;;2.53;1.58;;;;;;;;;;4873845;29;20048;-67
2021/06/15 13:23:17;;;;;;;3.58;1.60;;;;;;;;;;4875996;29;20128;-68
2021/06/15 13:25:43;;;;;;;5.82;1.80;;;;;;;;;;4876158;29;20065;-70
2021/06/15 13:28:12;;;;;;;3.83;1.42;;;;;;;;;;4875871;29;20428;-67
2021/06/15 13:30:42;;;;;;;7.32;2.00;;;;;;;;;;4875171;29;20550;-66
2021/06/15 13:33:15;;;;;;;4.80;1.67;;;;;;;;;;4876099;29;20533;-68
2021/06/15 13:35:41;;;;;;;2.13;1.30;;;;;;;;;;4876239;29;20558;-67
2021/06/15 13:38:09;;;;;;;2.47;1.60;;;;;;;;;;4876011;29;20728;-66
2021/06/15 13:40:42;;;;;;;5.57;1.50;;;;;;;;;;4876438;29;20037;-68
2021/06/15 13:43:14;;;;;;;5.60;1.80;;;;;;;;;;4876386;29;20029;-68
2021/06/15 13:45:41;;;;;;;3.60;1.65;;;;;;;;;;4879057;29;20041;-70
2021/06/15 13:48:08;;;;;;;5.35;1.83;;;;;;;;;;4879734;29;20105;-69
2021/06/15 13:50:35;;;;;;;6.93;2.08;;;;;;;;;;4879868;29;20029;-69
2021/06/15 13:53:01;;;;;;;5.70;1.70;;;;;;;;;;4879152;29;20820;-71
2021/06/15 13:55:30;;;;;;;3.10;1.63;;;;;;;;;;4879893;29;20035;-67
2021/06/15 13:57:56;;;;;;;4.05;1.75;;;;;;;;;;4879466;29;20021;-66
2021/06/15 14:00:22;;;;;;;2.47;1.52;;;;;;;;;;4879377;29;20040;-66
2021/06/15 14:02:49;;;;;;;4.75;1.90;;;;;;;;;;4879201;29;20021;-69
2021/06/15 14:05:17;;;;;;;6.65;1.75;;;;;;;;;;4878160;29;20040;-70
2021/06/15 14:07:43;;;;;;;3.60;1.42;;;;;;;;;;4877932;29;20111;-70
2021/06/15 14:10:10;;;;;;;2.80;1.27;;;;;;;;;;4878495;29;20033;-69
2021/06/15 14:12:36;;;;;;;3.75;1.58;;;;;;;;;;4879010;29;20028;-69
2021/06/15 14:15:05;;;;;;;6.57;1.73;;;;;;;;;;4878833;29;20108;-70
2021/06/15 14:17:31;;;;;;;4.40;1.63;;;;;;;;;;4878135;29;20032;-71
2021/06/15 14:19:58;;;;;;;4.55;1.50;;;;;;;;;;4878991;29;20060;-69
2021/06/15 14:22:24;;;;;;;4.30;1.50;;;;;;;;;;4877488;29;20056;-66
2021/06/15 14:24:50;;;;;;;4.55;1.70;;;;;;;;;;4877774;29;20072;-69
2021/06/15 14:27:20;;;;;;;4.55;1.50;;;;;;;;;;4879332;29;20108;-71
2021/06/15 14:29:46;;;;;;;2.33;1.30;;;;;;;;;;4878522;29;20052;-71
2021/06/15 14:32:12;;;;;;;2.90;1.50;;;;;;;;;;4878799;29;20033;-70
2021/06/15 14:34:38;;;;;;;3.53;1.48;;;;;;;;;;4878520;29;20029;-74
2021/06/15 14:37:05;;;;;;;6.05;1.80;;;;;;;;;;4878917;29;20068;-74
2021/06/15 14:39:31;;;;;;;3.75;1.50;;;;;;;;;;4877757;29;20069;-75
2021/06/15 14:41:57;;;;;;;3.55;1.48;;;;;;;;;;4878829;29;20025;-76
2021/06/15 14:44:23;;;;;;;4.30;1.60;;;;;;;;;;4878631;29;20120;-77
2021/06/15 14:46:49;;;;;;;3.40;1.42;;;;;;;;;;4878938;29;20025;-68
2021/06/15 14:49:15;;;;;;;3.17;1.60;;;;;;;;;;4878221;29;20097;-70
2021/06/15 14:51:41;;;;;;;3.00;1.50;;;;;;;;;;4878160;29;20052;-73
2021/06/15 14:54:08;;;;;;;4.45;1.38;;;;;;;;;;4878037;29;20129;-68
2021/06/15 14:56:35;;;;;;;5.45;1.70;;;;;;;;;;4878404;29;20047;-68
2021/06/15 14:59:01;;;;;;;6.63;1.60;;;;;;;;;;4877976;29;20031;-71
2021/06/15 15:01:28;;;;;;;2.85;1.58;;;;;;;;;;4878388;29;20470;-68
2021/06/15 15:03:54;;;;;;;4.30;1.70;;;;;;;;;;4877743;29;20044;-69
2021/06/15 15:06:20;;;;;;;4.57;1.85;;;;;;;;;;4879149;29;20036;-86
2021/06/15 15:08:46;;;;;;;3.60;1.20;;;;;;;;;;4877563;29;20084;-75
2021/06/15 15:11:12;;;;;;;11.52;5.35;;;;;;;;;;4877456;29;20504;-70
2021/06/15 15:13:38;;;;;;;11.90;6.95;;;;;;;;;;4878520;29;20045;-69
2021/06/15 15:16:06;;;;;;;27.30;14.65;;;;;;;;;;4877663;29;20025;-68
2021/06/15 15:18:32;;;;;;;5.13;2.10;;;;;;;;;;4877797;29;20021;-70
2021/06/15 15:20:59;;;;;;;10.45;5.13;;;;;;;;;;4877479;29;20051;-72
2021/06/15 15:23:25;;;;;;;5.35;1.60;;;;;;;;;;4877714;29;20100;-69
2021/06/15 15:25:51;;;;;;;9.25;3.83;;;;;;;;;;4878371;29;20079;-69
2021/06/15 15:28:17;;;;;;;10.05;3.75;;;;;;;;;;4878507;29;20021;-70
2021/06/15 15:30:47;;;;;;;4.68;1.90;;;;;;;;;;4878123;29;20108;-78
2021/06/15 15:33:13;;;;;;;3.75;1.98;;;;;;;;;;4876902;29;20405;-69
2021/06/15 15:35:40;;;;;;;4.78;1.92;;;;;;;;;;4877029;29;20131;-70
2021/06/15 15:38:06;;;;;;;4.75;2.58;;;;;;;;;;4877058;29;20075;-73
2021/06/15 15:40:32;;;;;;;6.57;2.35;;;;;;;;;;4876942;29;20029;-71
2021/06/15 15:43:00;;;;;;;3.88;2.10;;;;;;;;;;4876167;29;20029;-72
2021/06/15 15:45:26;;;;;;;6.15;2.35;;;;;;;;;;4875369;29;20557;-73
2021/06/15 15:47:53;;;;;;;4.30;1.80;;;;;;;;;;4877409;29;20025;-70
2021/06/15 15:50:26;;;;;;;6.82;1.70;;;;;;;;;;4877093;29;20033;-69
2021/06/15 15:52:52;;;;;;;4.97;1.98;;;;;;;;;;4877445;29;20036;-71
2021/06/15 15:55:18;;;;;;;3.55;1.60;;;;;;;;;;4859944;29;20041;-71
2021/06/15 15:57:44;;;;;;;3.72;1.90;;;;;;;;;;4876814;29;20032;-70
2021/06/15 16:00:12;;;;;;;6.78;2.00;;;;;;;;;;4877197;29;20111;-69
2021/06/15 16:02:38;;;;;;;6.68;2.28;;;;;;;;;;4876609;29;20025;-70
2021/06/15 16:05:05;;;;;;;5.32;1.63;;;;;;;;;;4859330;29;20045;-71
2021/06/15 16:07:31;;;;;;;4.60;1.60;;;;;;;;;;4876238;29;20116;-70
2021/06/15 16:09:57;;;;;;;4.88;1.83;;;;;;;;;;4877397;29;20113;-70
2021/06/15 16:12:23;;;;;;;6.30;2.10;;;;;;;;;;4877159;29;20444;-74
2021/06/15 16:14:49;;;;;;;11.70;2.53;;;;;;;;;;4877560;29;20025;-70
2021/06/15 16:17:15;;;;;;;7.90;2.38;;;;;;;;;;4876674;29;20029;-69
2021/06/15 16:19:41;;;;;;;8.82;2.47;;;;;;;;;;4877465;29;20422;-75
2021/06/15 16:22:08;;;;;;;7.90;2.17;;;;;;;;;;4877534;29;20143;-70
2021/06/15 16:24:34;;;;;;;6.32;2.13;;;;;;;;;;4877298;29;20037;-71
2021/06/15 16:27:00;;;;;;;5.93;2.20;;;;;;;;;;4877665;29;20033;-69
2021/06/15 16:29:27;;;;;;;7.53;2.30;;;;;;;;;;4877385;29;20037;-68
2021/06/15 16:31:53;;;;;;;5.35;2.15;;;;;;;;;;4877278;29;20037;-69
2021/06/15 16:34:19;;;;;;;15.25;2.78;;;;;;;;;;4876654;29;20033;-69
2021/06/15 16:36:45;;;;;;;7.97;2.28;;;;;;;;;;4877021;29;20111;-70
2021/06/15 16:39:11;;;;;;;8.02;2.35;;;;;;;;;;4876828;29;20485;-70
2021/06/15 16:41:40;;;;;;;5.03;2.53;;;;;;;;;;4877120;29;20108;-71
2021/06/15 16:44:07;;;;;;;6.22;2.05;;;;;;;;;;4877277;29;20422;-71
2021/06/15 16:46:34;;;;;;;5.57;2.28;;;;;;;;;;4876798;29;20076;-69
2021/06/15 16:49:00;;;;;;;7.85;2.00;;;;;;;;;;4876799;29;20104;-68
2021/06/15 16:51:27;;;;;;;4.80;2.30;;;;;;;;;;4875912;29;20048;-70
2021/06/15 16:53:53;;;;;;;6.30;2.40;;;;;;;;;;4877271;29;20032;-65
2021/06/15 16:56:20;;;;;;;5.10;2.58;;;;;;;;;;4876853;29;20496;-69
2021/06/15 16:58:47;;;;;;;8.10;4.18;;;;;;;;;;4859711;29;20065;-71
2021/06/15 17:01:14;;;;;;;8.52;3.60;;;;;;;;;;4877324;29;20025;-68
2021/06/15 17:03:40;;;;;;;7.50;3.30;;;;;;;;;;4876546;29;20069;-69
2021/06/15 17:06:07;;;;;;;4.47;2.88;;;;;;;;;;4876136;29;20060;-68
2021/06/15 17:08:33;;;;;;;11.90;5.55;;;;;;;;;;4876481;29;20021;-69
2021/06/15 17:10:59;;;;;;;9.40;4.10;;;;;;;;;;4876289;29;20605;-68
2021/06/15 17:13:26;;;;;;;6.45;3.22;;;;;;;;;;4876882;29;20111;-73
2021/06/15 17:15:52;;;;;;;5.93;3.58;;;;;;;;;;4876561;29;20673;-72
2021/06/15 17:18:18;;;;;;;10.45;4.25;;;;;;;;;;4877370;29;20052;-69
2021/06/15 17:20:46;;;;;;;9.98;3.70;;;;;;;;;;4878870;29;20036;-74
2021/06/15 17:23:13;;;;;;;8.48;3.45;;;;;;;;;;4879132;29;20061;-73
2021/06/15 17:25:39;;;;;;;9.48;3.80;;;;;;;;;;4880270;29;20164;-75
2021/06/15 17:28:05;;;;;;;11.38;4.05;;;;;;;;;;4880281;29;20112;-75
2021/06/15 17:30:32;;;;;;;6.20;2.90;;;;;;;;;;4879737;29;20101;-74
2021/06/15 17:32:59;;;;;;;8.48;3.15;;;;;;;;;;4880038;29;20032;-70
2021/06/15 17:35:25;;;;;;;8.95;3.40;;;;;;;;;;4880707;29;20032;-72
2021/06/15 17:37:52;;;;;;;11.88;4.45;;;;;;;;;;4879173;29;20041;-73
2021/06/15 17:40:20;;;;;;;9.23;3.40;;;;;;;;;;4879667;29;20035;-71
2021/06/15 17:42:50;;;;;;;7.88;3.33;;;;;;;;;;4879845;29;20041;-69
2021/06/15 17:45:16;;;;;;;10.80;4.03;;;;;;;;;;4879907;29;20124;-71
2021/06/15 17:47:42;;;;;;;5.55;3.35;;;;;;;;;;4878331;29;20083;-73
2021/06/15 17:50:08;;;;;;;13.55;3.90;;;;;;;;;;4875680;29;20743;-74
2021/06/15 17:52:35;;;;;;;10.68;4.00;;;;;;;;;;4877783;29;20037;-73
2021/06/15 17:55:04;;;;;;;9.07;3.35;;;;;;;;;;4878840;29;20025;-66
2021/06/15 17:57:32;;;;;;;7.22;3.28;;;;;;;;;;4874415;29;20033;-68
2021/06/15 17:59:59;;;;;;;9.43;4.20;;;;;;;;;;4859104;29;20129;-73
2021/06/15 18:02:26;;;;;;;7.13;3.58;;;;;;;;;;4875109;29;20079;-73
2021/06/15 18:04:55;;;;;;;9.38;4.80;;;;;;;;;;4875460;29;20037;-72
2021/06/15 18:07:30;;;;;;;12.25;5.95;;;;;;;;;;4878577;29;20049;-72
2021/06/15 18:09:56;;;;;;;8.52;3.80;;;;;;;;;;4877527;29;20060;-67
2021/06/15 18:12:23;;;;;;;9.35;4.20;;;;;;;;;;4878310;29;20063;-76
2021/06/15 18:14:49;;;;;;;8.93;3.38;;;;;;;;;;4879339;29;20118;-74
2021/06/15 18:17:16;;;;;;;11.02;3.55;;;;;;;;;;4879648;29;20382;-72
2021/06/15 18:19:42;;;;;;;7.50;3.60;;;;;;;;;;4874106;29;20534;-70
2021/06/15 18:22:09;;;;;;;9.30;3.83;;;;;;;;;;4860309;29;20054;-67
2021/06/15 18:24:35;;;;;;;6.10;3.40;;;;;;;;;;4865785;29;20033;-71
2021/06/15 18:27:01;;;;;;;10.18;3.47;;;;;;;;;;4869942;29;20029;-74
2021/06/15 18:29:28;;;;;;;7.45;3.38;;;;;;;;;;4879075;29;20028;-73
2021/06/15 18:31:55;;;;;;;10.02;4.00;;;;;;;;;;4878889;29;20660;-71
2021/06/15 18:34:21;;;;;;;13.35;8.02;;;;;;;;;;4878763;29;20549;-71
2021/06/15 18:36:47;;;;;;;10.13;5.25;;;;;;;;;;4879274;29;20037;-73
2021/06/15 18:39:15;;;;;;;12.82;4.03;;;;;;;;;;4878511;29;20036;-74
2021/06/15 18:41:41;;;;;;;13.23;5.38;;;;;;;;;;4857181;29;20037;-69
2021/06/15 18:44:07;;;;;;;12.80;6.68;;;;;;;;;;4866898;29;20044;-69
2021/06/15 18:46:34;;;;;;;12.88;5.82;;;;;;;;;;4869183;29;20043;-74
2021/06/15 18:49:00;;;;;;;12.15;4.97;;;;;;;;;;4868986;29;20025;-74
2021/06/15 18:51:30;;;;;;;10.98;4.43;;;;;;;;;;4869646;29;20033;-75
2021/06/15 18:53:56;;;;;;;11.30;5.03;;;;;;;;;;4874500;29;20028;-73
2021/06/15 18:56:23;;;;;;;8.23;4.30;;;;;;;;;;4878071;29;20033;-73
2021/06/15 18:58:49;;;;;;;9.88;5.22;;;;;;;;;;4877585;29;20021;-69
2021/06/15 19:01:15;;;;;;;12.70;5.68;;;;;;;;;;4877576;29;20040;-72
2021/06/15 19:03:41;;;;;;;10.45;5.57;;;;;;;;;;4875255;29;20040;-67
2021/06/15 19:06:07;;;;;;;13.20;6.20;;;;;;;;;;4877628;29;20041;-73
2021/06/15 19:08:33;;;;;;;14.00;6.75;;;;;;;;;;4877744;29;20029;-70
2021/06/15 19:11:00;;;;;;;12.63;6.38;;;;;;;;;;4876057;29;20051;-69
2021/06/15 19:13:26;;;;;;;14.77;5.95;;;;;;;;;;4867834;29;20078;-70
2021/06/15 19:15:52;;;;;;;10.88;6.45;;;;;;;;;;4873189;29;20043;-73
2021/06/15 19:18:18;;;;;;;12.07;5.70;;;;;;;;;;4877364;29;20558;-71
2021/06/15 19:20:44;;;;;;;9.65;6.05;;;;;;;;;;4876075;29;20145;-69
2021/06/15 19:23:10;;;;;;;10.98;5.70;;;;;;;;;;4868290;29;20050;-73
2021/06/15 19:25:37;;;;;;;11.77;6.40;;;;;;;;;;4867076;29;20482;-71
2021/06/15 19:28:04;;;;;;;7.97;4.57;;;;;;;;;;4869172;29;20029;-74
2021/06/15 19:30:30;;;;;;;8.70;4.90;;;;;;;;;;4891693;29;20037;-72
2021/06/15 19:32:56;;;;;;;18.45;11.57;;;;;;;;;;4892051;29;20021;-72
2021/06/15 19:35:23;;;;;;;10.57;5.82;;;;;;;;;;4877483;29;20104;-76
2021/06/15 19:37:49;;;;;;;7.75;5.10;;;;;;;;;;4876926;29;20033;-73
2021/06/15 19:40:15;;;;;;;9.65;4.80;;;;;;;;;;4876812;29;20093;-73
2021/06/15 19:42:41;;;;;;;12.60;5.60;;;;;;;;;;4873165;29;20059;-72
2021/06/15 19:45:09;;;;;;;9.38;4.90;;;;;;;;;;4874955;29;20509;-71
2021/06/15 19:47:35;;;;;;;8.38;4.88;;;;;;;;;;4877526;29;20029;-75
2021/06/15 19:50:01;;;;;;;8.25;5.22;;;;;;;;;;4871986;29;20036;-72
2021/06/15 19:52:28;;;;;;;7.70;4.00;;;;;;;;;;4874107;29;20036;-71
2021/06/15 19:54:54;;;;;;;11.68;4.70;;;;;;;;;;4876899;29;20077;-69
2021/06/15 19:57:20;;;;;;;7.72;4.60;;;;;;;;;;4868604;29;20027;-70
2021/06/15 19:59:46;;;;;;;9.85;5.38;;;;;;;;;;4868938;29;20090;-75
2021/06/15 20:02:12;;;;;;;7.50;5.47;;;;;;;;;;4868899;29;20037;-70
2021/06/15 20:04:38;;;;;;;12.30;5.32;;;;;;;;;;4867240;29;20096;-71
2021/06/15 20:07:04;;;;;;;10.00;5.57;;;;;;;;;;4865332;29;20481;-70